sensor_id;sensor_type;location;lat;lon;timestamp;temperature;humidity
40732;DHT22;26420;52.256;9.096;2023-11-18T01:08:04;4.80;99.90
40732;DHT22;26420;52.256;9.096;2023-11-18T01:13:06;4.80;99.90
40732;DHT22;26420;52.256;9.096;2023-11-18T01:18:10;4.90;99.90
40732;DHT22;26420;52.256;9.096;2023-11-18T01:23:12;4.90;99.90
40732;DHT22;26420;52.256;9.096;2023-11-18T01:28:14;5.00;99.90
40732;DHT22;26420;52.256;9.096;2023-11-18T01:33:17;5.00;99.90
40732;DHT22;26420;52.256;9.096;2023-11-18T01:38:18;5.00;99.90
40732;DHT22;26420;52.256;9.096;2023-11-18T01:43:21;4.90;99.90
40732;DHT22;26420;52.256;9.096;2023-11-18T01:48:23;4.80;99.90
40732;DHT22;26420;52.256;9.096;2023-11-18T01:53:28;4.70;99.90
40732;DHT22;26420;52.256;9.096;2023-11-18T01:58:31;4.70;99.90
40732;DHT22;26420;52.256;9.096;2023-11-18T03:50:19;4.80;99.90
40732;DHT22;26420;52.256;9.096;2023-11-18T03:55:21;4.90;99.90
40732;DHT22;26420;52.256;9.096;2023-11-18T04:00:23;4.90;99.90
40732;DHT22;26420;52.256;9.096;2023-11-18T04:05:30;4.80;99.90
40732;DHT22;26420;52.256;9.096;2023-11-18T04:10:34;4.70;99.90
40732;DHT22;26420;52.256;9.096;2023-11-18T04:15:36;4.70;99.90
40732;DHT22;26420;52.256;9.096;2023-11-18T04:20:38;4.80;99.90
40732;DHT22;26420;52.256;9.096;2023-11-18T04:25:40;4.70;99.90
40732;DHT22;26420;52.256;9.096;2023-11-18T04:30:43;4.70;99.90
40732;DHT22;26420;52.256;9.096;2023-11-18T04:35:46;4.70;99.90
40732;DHT22;26420;52.256;9.096;2023-11-18T04:40:48;4.70;99.90
40732;DHT22;26420;52.256;9.096;2023-11-18T04:45:50;4.60;99.90
40732;DHT22;26420;52.256;9.096;2023-11-18T04:50:52;4.60;99.90
40732;DHT22;26420;52.256;9.096;2023-11-18T04:55:54;4.60;99.90
40732;DHT22;26420;52.256;9.096;2023-11-18T05:00:55;4.50;99.90
40732;DHT22;26420;52.256;9.096;2023-11-18T05:05:58;4.40;99.90
40732;DHT22;26420;52.256;9.096;2023-11-18T05:10:59;4.30;99.90
40732;DHT22;26420;52.256;9.096;2023-11-18T05:16:02;4.40;99.90
40732;DHT22;26420;52.256;9.096;2023-11-18T05:21:05;4.30;99.90
40732;DHT22;26420;52.256;9.096;2023-11-18T05:26:07;4.10;99.90
40732;DHT22;26420;52.256;9.096;2023-11-18T05:31:10;4.10;99.90
40732;DHT22;26420;52.256;9.096;2023-11-18T05:36:13;4.10;99.90
40732;DHT22;26420;52.256;9.096;2023-11-18T05:51:31;4.20;99.90
40732;DHT22;26420;52.256;9.096;2023-11-18T05:56:33;4.10;99.90
40732;DHT22;26420;52.256;9.096;2023-11-18T06:01:35;4.10;99.90
40732;DHT22;26420;52.256;9.096;2023-11-18T06:06:38;3.90;99.90
40732;DHT22;26420;52.256;9.096;2023-11-18T06:11:40;3.80;99.90
40732;DHT22;26420;52.256;9.096;2023-11-18T06:16:42;3.80;99.90
40732;DHT22;26420;52.256;9.096;2023-11-18T06:21:44;3.80;99.90
40732;DHT22;26420;52.256;9.096;2023-11-18T06:26:47;3.80;99.90
40732;DHT22;26420;52.256;9.096;2023-11-18T06:31:50;3.80;99.90
40732;DHT22;26420;52.256;9.096;2023-11-18T06:36:53;3.80;99.90
40732;DHT22;26420;52.256;9.096;2023-11-18T06:41:56;3.80;99.90
40732;DHT22;26420;52.256;9.096;2023-11-18T06:46:59;3.80;99.90
40732;DHT22;26420;52.256;9.096;2023-11-18T06:52:03;3.80;99.90
40732;DHT22;26420;52.256;9.096;2023-11-18T06:57:05;3.90;99.90
40732;DHT22;26420;52.256;9.096;2023-11-18T07:02:08;3.90;99.90
40732;DHT22;26420;52.256;9.096;2023-11-18T07:07:11;4.00;99.90
40732;DHT22;26420;52.256;9.096;2023-11-18T07:12:14;4.00;99.90
40732;DHT22;26420;52.256;9.096;2023-11-18T07:17:16;4.10;99.90
40732;DHT22;26420;52.256;9.096;2023-11-18T07:22:20;4.20;99.90
40732;DHT22;26420;52.256;9.096;2023-11-18T07:27:22;4.20;99.90
40732;DHT22;26420;52.256;9.096;2023-11-18T07:32:24;4.20;99.90
40732;DHT22;26420;52.256;9.096;2023-11-18T07:37:26;4.30;99.90
40732;DHT22;26420;52.256;9.096;2023-11-18T07:42:28;4.40;99.90
40732;DHT22;26420;52.256;9.096;2023-11-18T07:47:30;4.40;99.90
40732;DHT22;26420;52.256;9.096;2023-11-18T07:52:35;4.40;99.90
40732;DHT22;26420;52.256;9.096;2023-11-18T07:57:37;4.50;99.90
40732;DHT22;26420;52.256;9.096;2023-11-18T08:02:39;4.50;99.90
40732;DHT22;26420;52.256;9.096;2023-11-18T08:07:42;4.60;99.90
40732;DHT22;26420;52.256;9.096;2023-11-18T08:12:46;4.70;99.90
40732;DHT22;26420;52.256;9.096;2023-11-18T08:17:48;4.80;99.90
40732;DHT22;26420;52.256;9.096;2023-11-18T08:22:51;4.90;99.90
40732;DHT22;26420;52.256;9.096;2023-11-18T08:27:53;5.00;99.90
40732;DHT22;26420;52.256;9.096;2023-11-18T08:32:54;5.10;99.90
40732;DHT22;26420;52.256;9.096;2023-11-18T08:37:57;5.10;99.90
40732;DHT22;26420;52.256;9.096;2023-11-18T08:43:00;5.20;99.90
40732;DHT22;26420;52.256;9.096;2023-11-18T08:48:03;5.30;99.90
40732;DHT22;26420;52.256;9.096;2023-11-18T08:53:09;5.30;99.90
40732;DHT22;26420;52.256;9.096;2023-11-18T08:58:12;5.40;99.90
40732;DHT22;26420;52.256;9.096;2023-11-18T09:03:30;5.50;99.90
40732;DHT22;26420;52.256;9.096;2023-11-18T09:08:38;5.70;99.90
40732;DHT22;26420;52.256;9.096;2023-11-18T09:13:46;5.80;99.90
40732;DHT22;26420;52.256;9.096;2023-11-18T09:18:55;5.90;99.90
40732;DHT22;26420;52.256;9.096;2023-11-18T09:24:01;5.90;99.90
40732;DHT22;26420;52.256;9.096;2023-11-18T09:29:07;6.10;99.90
40732;DHT22;26420;52.256;9.096;2023-11-18T09:34:12;6.10;99.90
40732;DHT22;26420;52.256;9.096;2023-11-18T09:39:17;6.20;99.90
40732;DHT22;26420;52.256;9.096;2023-11-18T09:44:31;6.20;99.90
40732;DHT22;26420;52.256;9.096;2023-11-18T09:49:40;6.40;99.90
40732;DHT22;26420;52.256;9.096;2023-11-18T09:55:03;6.50;99.90
40732;DHT22;26420;52.256;9.096;2023-11-18T10:00:11;6.50;99.90
40732;DHT22;26420;52.256;9.096;2023-11-18T10:05:29;6.60;99.90
40732;DHT22;26420;52.256;9.096;2023-11-18T10:10:32;6.70;99.90
40732;DHT22;26420;52.256;9.096;2023-11-18T10:15:39;6.50;99.90
40732;DHT22;26420;52.256;9.096;2023-11-18T10:25:53;6.30;99.90
40732;DHT22;26420;52.256;9.096;2023-11-18T10:31:02;6.30;99.90
40732;DHT22;26420;52.256;9.096;2023-11-18T10:36:06;6.30;99.90
40732;DHT22;26420;52.256;9.096;2023-11-18T10:41:23;6.40;99.90
40732;DHT22;26420;52.256;9.096;2023-11-18T10:46:25;6.30;99.90
40732;DHT22;26420;52.256;9.096;2023-11-18T10:51:27;6.20;99.90
40732;DHT22;26420;52.256;9.096;2023-11-18T10:56:32;6.20;99.90
40732;DHT22;26420;52.256;9.096;2023-11-18T11:01:37;6.20;99.90
40732;DHT22;26420;52.256;9.096;2023-11-18T11:06:46;6.30;99.90
40732;DHT22;26420;52.256;9.096;2023-11-18T11:11:56;6.40;99.90
40732;DHT22;26420;52.256;9.096;2023-11-18T11:17:07;6.70;99.90
40732;DHT22;26420;52.256;9.096;2023-11-18T11:22:18;6.90;99.90
40732;DHT22;26420;52.256;9.096;2023-11-18T11:27:27;7.00;99.90
40732;DHT22;26420;52.256;9.096;2023-11-18T11:32:56;7.20;99.90
40732;DHT22;26420;52.256;9.096;2023-11-18T11:38:04;7.20;99.90
40732;DHT22;26420;52.256;9.096;2023-11-18T11:43:11;7.30;99.90
40732;DHT22;26420;52.256;9.096;2023-11-18T11:48:15;7.10;99.90
40732;DHT22;26420;52.256;9.096;2023-11-18T11:53:23;7.00;99.90
40732;DHT22;26420;52.256;9.096;2023-11-18T11:58:33;6.90;99.90
40732;DHT22;26420;52.256;9.096;2023-11-18T12:03:40;6.90;99.90
40732;DHT22;26420;52.256;9.096;2023-11-18T12:08:46;6.90;99.90
40732;DHT22;26420;52.256;9.096;2023-11-18T12:14:05;6.90;99.90
40732;DHT22;26420;52.256;9.096;2023-11-18T12:19:30;6.90;99.90
40732;DHT22;26420;52.256;9.096;2023-11-18T12:24:34;6.80;99.90
40732;DHT22;26420;52.256;9.096;2023-11-18T12:29:41;6.70;99.90
40732;DHT22;26420;52.256;9.096;2023-11-18T12:34:52;6.60;99.90
40732;DHT22;26420;52.256;9.096;2023-11-18T12:40:39;6.60;99.90
40732;DHT22;26420;52.256;9.096;2023-11-18T12:51:38;6.40;99.90
40732;DHT22;26420;52.256;9.096;2023-11-18T12:56:40;6.50;99.90
40732;DHT22;26420;52.256;9.096;2023-11-18T13:01:47;6.50;99.90
40732;DHT22;26420;52.256;9.096;2023-11-18T13:06:55;6.50;99.90
40732;DHT22;26420;52.256;9.096;2023-11-18T13:11:58;6.50;99.90
40732;DHT22;26420;52.256;9.096;2023-11-18T13:17:04;6.40;99.90
40732;DHT22;26420;52.256;9.096;2023-11-18T13:22:12;6.40;99.90
40732;DHT22;26420;52.256;9.096;2023-11-18T13:27:16;6.40;99.90
40732;DHT22;26420;52.256;9.096;2023-11-18T13:32:18;6.40;99.90
40732;DHT22;26420;52.256;9.096;2023-11-18T13:37:25;6.30;99.90
40732;DHT22;26420;52.256;9.096;2023-11-18T13:42:27;6.20;99.90
40732;DHT22;26420;52.256;9.096;2023-11-18T13:47:29;6.10;99.90
40732;DHT22;26420;52.256;9.096;2023-11-18T13:52:34;6.10;99.90
40732;DHT22;26420;52.256;9.096;2023-11-18T13:57:36;6.00;99.90
40732;DHT22;26420;52.256;9.096;2023-11-18T14:02:38;6.00;99.90
40732;DHT22;26420;52.256;9.096;2023-11-18T14:07:40;6.00;99.90
40732;DHT22;26420;52.256;9.096;2023-11-18T14:13:01;5.90;99.90
40732;DHT22;26420;52.256;9.096;2023-11-18T14:18:17;5.90;99.90
40732;DHT22;26420;52.256;9.096;2023-11-18T14:23:18;5.80;99.90
40732;DHT22;26420;52.256;9.096;2023-11-18T14:28:20;5.80;99.90
40732;DHT22;26420;52.256;9.096;2023-11-18T14:33:26;5.70;99.90
40732;DHT22;26420;52.256;9.096;2023-11-18T14:38:29;5.70;99.90
40732;DHT22;26420;52.256;9.096;2023-11-18T14:43:32;5.60;99.90
40732;DHT22;26420;52.256;9.096;2023-11-18T14:48:33;5.60;99.90
40732;DHT22;26420;52.256;9.096;2023-11-18T14:53:35;5.50;99.90
40732;DHT22;26420;52.256;9.096;2023-11-18T14:58:38;5.50;99.90
40732;DHT22;26420;52.256;9.096;2023-11-18T15:03:40;5.50;99.90
40732;DHT22;26420;52.256;9.096;2023-11-18T15:08:42;5.40;99.90
40732;DHT22;26420;52.256;9.096;2023-11-18T15:13:47;5.40;99.90
40732;DHT22;26420;52.256;9.096;2023-11-18T15:18:48;5.40;99.90
40732;DHT22;26420;52.256;9.096;2023-11-18T15:23:53;5.40;99.90
40732;DHT22;26420;52.256;9.096;2023-11-18T15:29:00;5.40;99.90
40732;DHT22;26420;52.256;9.096;2023-11-18T15:34:04;5.40;99.90
40732;DHT22;26420;52.256;9.096;2023-11-18T15:39:06;5.30;99.90
40732;DHT22;26420;52.256;9.096;2023-11-18T15:44:08;5.40;99.90
40732;DHT22;26420;52.256;9.096;2023-11-18T15:49:13;5.40;99.90
40732;DHT22;26420;52.256;9.096;2023-11-18T15:54:15;5.30;99.90
40732;DHT22;26420;52.256;9.096;2023-11-18T15:59:17;5.30;99.90
40732;DHT22;26420;52.256;9.096;2023-11-18T16:04:19;5.30;99.90
40732;DHT22;26420;52.256;9.096;2023-11-18T16:09:21;5.30;99.90
40732;DHT22;26420;52.256;9.096;2023-11-18T16:14:23;5.30;99.90
40732;DHT22;26420;52.256;9.096;2023-11-18T16:19:26;5.40;99.90
40732;DHT22;26420;52.256;9.096;2023-11-18T16:24:28;5.40;99.90
40732;DHT22;26420;52.256;9.096;2023-11-18T16:29:30;5.40;99.90
40732;DHT22;26420;52.256;9.096;2023-11-18T16:34:32;5.50;99.90
40732;DHT22;26420;52.256;9.096;2023-11-18T16:39:34;5.50;99.90
40732;DHT22;26420;52.256;9.096;2023-11-18T16:44:35;5.50;99.90
40732;DHT22;26420;52.256;9.096;2023-11-18T16:49:37;5.40;99.90
40732;DHT22;26420;52.256;9.096;2023-11-18T16:54:39;5.40;99.90
40732;DHT22;26420;52.256;9.096;2023-11-18T16:59:42;5.50;99.90
40732;DHT22;26420;52.256;9.096;2023-11-18T17:04:45;5.50;99.90
40732;DHT22;26420;52.256;9.096;2023-11-18T17:09:46;5.50;99.90
40732;DHT22;26420;52.256;9.096;2023-11-18T17:14:48;5.50;99.90
40732;DHT22;26420;52.256;9.096;2023-11-18T17:19:50;5.50;99.90
40732;DHT22;26420;52.256;9.096;2023-11-18T17:24:52;5.50;99.90
40732;DHT22;26420;52.256;9.096;2023-11-18T17:29:56;5.50;99.90
40732;DHT22;26420;52.256;9.096;2023-11-18T17:34:58;5.50;99.90
40732;DHT22;26420;52.256;9.096;2023-11-18T17:40:00;5.50;99.90
40732;DHT22;26420;52.256;9.096;2023-11-18T17:45:03;5.50;99.90
40732;DHT22;26420;52.256;9.096;2023-11-18T17:50:07;5.50;99.90
40732;DHT22;26420;52.256;9.096;2023-11-18T17:55:11;5.50;99.90
40732;DHT22;26420;52.256;9.096;2023-11-18T18:00:16;5.60;99.90
40732;DHT22;26420;52.256;9.096;2023-11-18T18:05:22;5.50;99.90
40732;DHT22;26420;52.256;9.096;2023-11-18T18:10:25;5.50;99.90
40732;DHT22;26420;52.256;9.096;2023-11-18T18:15:29;5.60;99.90
40732;DHT22;26420;52.256;9.096;2023-11-18T18:20:31;5.50;99.90
40732;DHT22;26420;52.256;9.096;2023-11-18T18:25:33;5.60;99.90
40732;DHT22;26420;52.256;9.096;2023-11-18T18:30:36;5.60;99.90
40732;DHT22;26420;52.256;9.096;2023-11-18T18:35:40;5.50;99.90
40732;DHT22;26420;52.256;9.096;2023-11-18T18:40:42;5.60;99.90
40732;DHT22;26420;52.256;9.096;2023-11-18T18:45:44;5.60;99.90
40732;DHT22;26420;52.256;9.096;2023-11-18T18:50:46;5.60;99.90
40732;DHT22;26420;52.256;9.096;2023-11-18T18:55:48;5.60;99.90
40732;DHT22;26420;52.256;9.096;2023-11-18T19:00:50;5.70;99.90
40732;DHT22;26420;52.256;9.096;2023-11-18T19:05:53;5.80;99.90
40732;DHT22;26420;52.256;9.096;2023-11-18T19:10:55;5.80;99.90
40732;DHT22;26420;52.256;9.096;2023-11-18T19:15:57;5.90;99.90
40732;DHT22;26420;52.256;9.096;2023-11-18T19:20:59;5.90;99.90
40732;DHT22;26420;52.256;9.096;2023-11-18T19:26:06;5.90;99.90
40732;DHT22;26420;52.256;9.096;2023-11-18T19:31:09;6.00;99.90
40732;DHT22;26420;52.256;9.096;2023-11-18T19:36:12;5.90;99.90
40732;DHT22;26420;52.256;9.096;2023-11-18T19:41:14;6.00;99.90
40732;DHT22;26420;52.256;9.096;2023-11-18T19:46:16;6.00;99.90
40732;DHT22;26420;52.256;9.096;2023-11-18T19:51:19;6.00;99.90
40732;DHT22;26420;52.256;9.096;2023-11-18T19:56:21;6.00;99.90
40732;DHT22;26420;52.256;9.096;2023-11-18T20:01:24;6.00;99.90
40732;DHT22;26420;52.256;9.096;2023-11-18T20:06:26;6.10;99.90
40732;DHT22;26420;52.256;9.096;2023-11-18T20:11:28;6.10;99.90
40732;DHT22;26420;52.256;9.096;2023-11-18T20:16:32;6.10;99.90
40732;DHT22;26420;52.256;9.096;2023-11-18T20:21:34;6.10;99.90
40732;DHT22;26420;52.256;9.096;2023-11-18T20:26:37;6.10;99.90
40732;DHT22;26420;52.256;9.096;2023-11-18T20:31:39;6.10;99.90
40732;DHT22;26420;52.256;9.096;2023-11-18T20:36:41;6.10;99.90
40732;DHT22;26420;52.256;9.096;2023-11-18T20:41:46;6.10;99.90
40732;DHT22;26420;52.256;9.096;2023-11-18T20:46:49;6.10;99.90
40732;DHT22;26420;52.256;9.096;2023-11-18T20:51:51;6.10;99.90
40732;DHT22;26420;52.256;9.096;2023-11-18T20:56:54;6.10;99.90
40732;DHT22;26420;52.256;9.096;2023-11-18T21:01:56;6.10;99.90
40732;DHT22;26420;52.256;9.096;2023-11-18T21:06:58;6.10;99.90
40732;DHT22;26420;52.256;9.096;2023-11-18T21:12:02;6.10;99.90
40732;DHT22;26420;52.256;9.096;2023-11-18T21:17:18;6.10;99.90
40732;DHT22;26420;52.256;9.096;2023-11-18T21:22:21;6.00;99.90
40732;DHT22;26420;52.256;9.096;2023-11-18T21:27:24;6.00;99.90
40732;DHT22;26420;52.256;9.096;2023-11-18T21:32:26;6.10;99.90
40732;DHT22;26420;52.256;9.096;2023-11-18T21:37:30;6.10;99.90
40732;DHT22;26420;52.256;9.096;2023-11-18T21:42:32;6.10;99.90
40732;DHT22;26420;52.256;9.096;2023-11-18T21:47:34;6.10;99.90
40732;DHT22;26420;52.256;9.096;2023-11-18T21:52:36;6.10;99.90
40732;DHT22;26420;52.256;9.096;2023-11-18T21:57:38;6.20;99.90
40732;DHT22;26420;52.256;9.096;2023-11-18T22:02:40;6.20;99.90
40732;DHT22;26420;52.256;9.096;2023-11-18T22:07:45;6.20;99.90
40732;DHT22;26420;52.256;9.096;2023-11-18T22:12:47;6.30;99.90
40732;DHT22;26420;52.256;9.096;2023-11-18T22:17:51;6.40;99.90
40732;DHT22;26420;52.256;9.096;2023-11-18T22:22:53;6.40;99.90
40732;DHT22;26420;52.256;9.096;2023-11-18T22:27:56;6.50;99.90
40732;DHT22;26420;52.256;9.096;2023-11-18T22:32:58;6.50;99.90
40732;DHT22;26420;52.256;9.096;2023-11-18T22:38:01;6.50;99.90
40732;DHT22;26420;52.256;9.096;2023-11-18T22:43:03;6.50;99.90
40732;DHT22;26420;52.256;9.096;2023-11-18T22:48:04;6.60;99.90
40732;DHT22;26420;52.256;9.096;2023-11-18T22:53:08;6.60;99.90
40732;DHT22;26420;52.256;9.096;2023-11-18T22:58:11;6.60;99.90
40732;DHT22;26420;52.256;9.096;2023-11-18T23:03:14;6.60;99.90
40732;DHT22;26420;52.256;9.096;2023-11-18T23:08:16;6.70;99.90
40732;DHT22;26420;52.256;9.096;2023-11-18T23:13:23;6.70;99.90
40732;DHT22;26420;52.256;9.096;2023-11-18T23:18:25;6.80;99.90
40732;DHT22;26420;52.256;9.096;2023-11-18T23:23:27;6.80;99.90
40732;DHT22;26420;52.256;9.096;2023-11-18T23:28:29;6.80;99.90
40732;DHT22;26420;52.256;9.096;2023-11-18T23:33:32;6.90;99.90
40732;DHT22;26420;52.256;9.096;2023-11-18T23:38:34;7.00;99.90
40732;DHT22;26420;52.256;9.096;2023-11-18T23:43:35;7.10;99.90
40732;DHT22;26420;52.256;9.096;2023-11-18T23:48:37;7.10;99.90
40732;DHT22;26420;52.256;9.096;2023-11-18T23:53:40;7.20;99.90
40732;DHT22;26420;52.256;9.096;2023-11-18T23:58:42;7.20;99.90
